Time;durP1;ratioP1;P1;durP2;ratioP2;P2;SDS_P1;SDS_P2;PMS_P1;PMS_P2;Temp;Humidity;BMP_temperature;BMP_pressure;BME280_temperature;BME280_humidity;BME280_pressure;Samples;Min_cycle;Max_cycle;Signal;HPM_P1;HPM_P2
2023/06/23 06:06:56;;;;;;;;;11.67;9.00;;;;;17.52;71.31;102140.84;5873647;23;46857;-68
2023/06/23 06:09:22;;;;;;;;;12.67;10.33;;;;;17.52;70.52;102130.16;4954747;28;46796;-69
2023/06/23 06:11:48;;;;;;;;;10.33;9.00;;;;;17.60;70.97;102141.88;4959128;28;46375;-70
2023/06/23 06:14:16;;;;;;;;;10.67;9.67;;;;;17.69;71.37;102149.16;4954697;28;45794;-69
2023/06/23 06:16:43;;;;;;;;;13.67;8.00;;;;;17.66;70.71;102131.28;4959374;28;45524;-69
2023/06/23 06:19:11;;;;;;;;;10.00;9.33;;;;;17.81;70.89;102137.78;4959766;28;46306;-69
2023/06/23 06:21:39;;;;;;;;;12.33;8.00;;;;;17.87;69.39;102127.22;4958475;28;46650;-69
2023/06/23 06:24:09;;;;;;;;;14.33;10.33;;;;;17.89;70.04;102129.00;4970148;28;45305;-71
2023/06/23 06:26:35;;;;;;;;;12.00;9.00;;;;;17.97;69.27;102123.78;4959483;28;44837;-69
2023/06/23 06:29:04;;;;;;;;;10.00;10.00;;;;;18.12;69.95;102131.16;4959783;28;45403;-68
2023/06/23 06:31:33;;;;;;;;;9.00;8.33;;;;;18.28;69.53;102135.81;4959365;28;46054;-68
2023/06/23 06:34:00;;;;;;;;;9.00;9.00;;;;;18.56;69.21;102144.22;4957843;28;45443;-68
2023/06/23 06:36:29;;;;;;;;;13.33;10.00;;;;;18.87;68.43;102158.94;4959406;28;45506;-68
2023/06/23 06:38:56;;;;;;;;;10.33;9.67;;;;;19.14;67.76;102150.31;4959394;28;45561;-68
2023/06/23 06:41:22;;;;;;;;;10.33;9.00;;;;;19.46;66.84;102149.72;4959128;28;46888;-68
2023/06/23 06:43:49;;;;;;;;;11.00;8.67;;;;;19.69;65.94;102131.19;4960236;28;45357;-68
2023/06/23 06:46:16;;;;;;;;;8.33;7.67;;;;;20.04;64.87;102147.53;4963533;28;45331;-68
2023/06/23 06:48:45;;;;;;;;;12.67;11.00;;;;;20.34;64.46;102154.00;4962650;28;47734;-68
2023/06/23 06:51:12;;;;;;;;;9.33;9.33;;;;;20.50;63.88;102128.09;4962926;28;46510;-68
2023/06/23 06:53:37;;;;;;;;;9.67;7.00;;;;;20.84;63.96;102136.31;4962070;28;45496;-68
2023/06/23 06:56:04;;;;;;;;;13.67;10.00;;;;;21.13;62.68;102147.19;4961612;28;45298;-69
2023/06/23 06:58:30;;;;;;;;;8.00;8.00;;;;;21.38;61.13;102142.78;4962683;28;45593;-70
2023/06/23 07:00:58;;;;;;;;;10.00;10.00;;;;;21.62;60.23;102141.88;4963218;28;45383;-71
2023/06/23 07:03:24;;;;;;;;;11.67;10.33;;;;;21.81;60.42;102137.38;4961270;28;45311;-70
2023/06/23 07:05:50;;;;;;;;;8.00;8.00;;;;;22.14;59.55;102147.22;4959156;28;45289;-70
2023/06/23 07:08:15;;;;;;;;;8.00;8.00;;;;;22.41;58.73;102142.72;4961904;28;45479;-70
2023/06/23 07:10:40;;;;;;;;;10.00;10.00;;;;;22.58;58.99;102121.09;4962994;28;45411;-70
2023/06/23 07:13:06;;;;;;;;;10.00;10.00;;;;;22.85;57.04;102123.63;4962539;28;45257;-70
2023/06/23 07:15:31;;;;;;;;;11.00;7.00;;;;;23.05;57.94;102102.00;4962936;28;45179;-70
2023/06/23 07:17:57;;;;;;;;;10.33;8.00;;;;;23.22;56.98;102091.97;4962274;28;45258;-69
2023/06/23 07:20:22;;;;;;;;;11.33;9.33;;;;;23.55;55.57;102102.47;4962658;28;45182;-70
2023/06/23 07:22:47;;;;;;;;;10.00;8.00;;;;;23.90;55.92;102119.28;4962242;28;45546;-70
2023/06/23 07:25:13;;;;;;;;;7.00;7.00;;;;;24.15;53.29;102115.44;4962507;28;45515;-70
2023/06/23 07:27:38;;;;;;;;;10.00;9.00;;;;;24.37;54.82;102116.06;4962531;28;45435;-70
2023/06/23 07:30:05;;;;;;;;;4.50;4.00;;;;;24.59;54.45;102114.94;4962902;28;45341;-70
2023/06/23 07:32:30;;;;;;;;;12.75;9.50;;;;;24.79;52.86;102115.56;4962274;28;45431;-70
2023/06/23 07:34:56;;;;;;;;;8.75;7.00;;;;;24.93;50.93;102106.38;4962922;28;45324;-70
2023/06/23 07:37:21;;;;;;;;;7.75;6.50;;;;;25.15;52.33;102121.41;4961735;28;45433;-70
2023/06/23 07:39:47;;;;;;;;;5.75;5.50;;;;;25.39;51.22;102119.22;4960781;28;46262;-70
2023/06/23 07:42:12;;;;;;;;;4.75;4.75;;;;;25.60;50.46;102112.53;4962140;28;45377;-71
2023/06/23 07:44:38;;;;;;;;;6.75;5.50;;;;;25.92;50.40;102127.38;4971125;28;45521;-70
2023/06/23 07:47:04;;;;;;;;;7.50;6.00;;;;;26.14;54.44;102128.75;4959635;28;45683;-70
2023/06/23 07:49:30;;;;;;;;;9.25;9.00;;;;;26.34;51.18;102131.94;4962282;28;45328;-70
2023/06/23 07:52:00;;;;;;;;;10.75;8.00;;;;;26.46;50.81;102138.06;4961767;28;45235;-70
2023/06/23 07:54:27;;;;;;;;;10.00;8.50;;;;;26.62;47.72;102136.84;4959715;28;45369;-71
2023/06/23 07:56:52;;;;;;;;;10.75;7.50;;;;;26.88;50.04;102138.97;4961031;28;45438;-71
2023/06/23 07:59:18;;;;;;;;;8.75;7.25;;;;;26.90;49.74;102125.38;4962419;28;46105;-70
2023/06/23 08:01:43;;;;;;;;;10.25;8.25;;;;;26.91;47.07;102124.44;4961322;28;45302;-70
2023/06/23 08:04:08;;;;;;;;;11.75;8.00;;;;;27.12;47.26;102126.69;4962433;28;45329;-70
2023/06/23 08:06:34;;;;;;;;;7.00;5.50;;;;;27.50;49.43;102141.16;4959729;28;45607;-70
2023/06/23 08:08:59;;;;;;;;;7.50;5.75;;;;;27.72;46.28;102151.50;4961757;28;45279;-70
2023/06/23 08:11:25;;;;;;;;;8.50;7.50;;;;;27.88;49.94;102150.19;4961758;28;45222;-70
2023/06/23 08:13:50;;;;;;;;;6.00;5.00;;;;;28.01;46.22;102145.34;4962283;28;45191;-70
2023/06/23 08:16:16;;;;;;;;;7.50;7.50;;;;;28.26;44.73;102164.56;4961834;28;45506;-71
2023/06/23 08:18:41;;;;;;;;;5.00;5.00;;;;;28.43;45.32;102161.41;4954855;28;46240;-70
2023/06/23 08:21:07;;;;;;;;;10.00;8.50;;;;;28.48;45.09;102148.56;4961940;28;47609;-70
2023/06/23 08:23:32;;;;;;;;;5.75;4.25;;;;;28.56;44.74;102149.22;4961433;28;45237;-70
2023/06/23 08:25:57;;;;;;;;;4.25;4.25;;;;;28.85;45.06;102164.72;4962065;28;45583;-71
2023/06/23 08:28:23;;;;;;;;;5.00;4.00;;;;;29.01;45.92;102170.56;4961622;28;46325;-71
2023/06/23 08:30:48;;;;;;;;;4.00;4.00;;;;;29.06;43.15;102157.72;4955799;28;45269;-74
2023/06/23 08:33:14;;;;;;;;;4.75;4.75;;;;;29.21;41.78;102159.97;4961558;28;45871;-73
2023/06/23 08:35:39;;;;;;;;;4.25;4.25;;;;;29.38;44.37;102158.50;4961187;28;45281;-70
2023/06/23 08:38:05;;;;;;;;;7.00;4.75;;;;;29.62;41.25;102165.00;4959659;28;46122;-71
2023/06/23 08:40:30;;;;;;;;;6.50;5.00;;;;;29.76;41.02;102154.53;4959581;28;46014;-70
2023/06/23 08:42:56;;;;;;;;;7.75;5.00;;;;;30.02;41.69;102166.38;4961098;28;45457;-71
2023/06/23 08:45:23;;;;;;;;;8.25;6.75;;;;;30.26;40.97;102160.06;4961618;28;45447;-71
2023/06/23 08:47:57;;;;;;;;;6.60;5.80;;;;;30.56;42.90;102176.28;4960969;28;46230;-71
2023/06/23 08:50:22;;;;;;;;;5.20;4.00;;;;;30.74;41.69;102161.00;4960309;28;45488;-71
2023/06/23 08:52:48;;;;;;;;;6.50;5.00;;;;;30.94;40.10;102173.91;4960950;28;45162;-71
2023/06/23 08:55:13;;;;;;;;;3.00;2.50;;;;;31.02;38.89;102165.44;4961488;28;45511;-71
2023/06/23 08:57:41;;;;;;;;;3.00;3.00;;;;;31.20;38.59;102172.88;4960833;28;45563;-71
2023/06/23 09:00:10;;;;;;;;;3.40;3.40;;;;;31.28;37.58;102164.38;4960088;28;45313;-71
2023/06/23 09:02:35;;;;;;;;;4.60;2.80;;;;;31.38;36.11;102168.56;4959507;28;46100;-72
2023/06/23 09:05:01;;;;;;;;;5.25;3.50;;;;;31.61;40.93;102175.78;4961457;28;45333;-71
2023/06/23 09:07:28;;;;;;;;;4.25;3.00;;;;;31.64;39.51;102173.78;4959108;28;45325;-71
2023/06/23 09:09:53;;;;;;;;;3.60;3.60;;;;;31.78;36.86;102180.53;4961406;28;45367;-71
2023/06/23 09:12:20;;;;;;;;;4.50;3.75;;;;;31.97;35.30;102177.94;4961007;28;45281;-71
2023/06/23 09:14:48;;;;;;;;;6.20;4.40;;;;;32.07;35.42;102180.19;4961045;28;45328;-72
2023/06/23 09:17:14;;;;;;;;;3.40;2.80;;;;;32.26;35.25;102180.25;4960566;28;45289;-72
2023/06/23 09:19:42;;;;;;;;;5.50;5.25;;;;;32.43;36.85;102174.00;4961089;28;45384;-71
2023/06/23 09:22:09;;;;;;;;;8.20;3.80;;;;;32.61;35.84;102174.19;4957970;28;45259;-71
2023/06/23 09:24:43;;;;;;;;;2.40;2.40;;;;;32.74;36.49;102181.75;4957158;28;45936;-71
2023/06/23 09:27:09;;;;;;;;;5.20;3.20;;;;;32.90;32.23;102175.53;4960124;28;45427;-71
2023/06/23 09:29:37;;;;;;;;;3.25;2.75;;;;;33.02;32.09;102171.34;4959558;28;45344;-72
2023/06/23 09:32:03;;;;;;;;;3.60;3.60;;;;;33.22;34.09;102179.50;4952690;28;45391;-72
2023/06/23 09:34:31;;;;;;;;;4.00;3.40;;;;;33.33;35.33;102174.38;4959157;28;46048;-70
2023/06/23 09:37:13;;;;;;;;;4.60;3.40;;;;;33.34;34.49;102169.78;4959856;28;46386;-71
2023/06/23 09:39:41;;;;;;;;;2.60;2.40;;;;;33.53;33.53;102165.19;4960300;28;45646;-70
2023/06/23 09:42:12;;;;;;;;;3.80;2.60;;;;;33.75;31.63;102169.53;4958777;28;45322;-70
2023/06/23 09:44:48;;;;;;;;;3.20;2.20;;;;;33.95;31.08;102169.41;4960901;28;45267;-70
2023/06/23 09:47:16;;;;;;;;;1.40;1.40;;;;;34.04;29.60;102170.78;4960331;28;45333;-70
2023/06/23 09:49:44;;;;;;;;;1.40;1.40;;;;;34.06;31.17;102157.91;4959115;28;45456;-70
2023/06/23 09:52:13;;;;;;;;;2.20;2.20;;;;;34.24;33.56;102170.63;4960302;28;45614;-69
2023/06/23 09:54:40;;;;;;;;;1.80;1.80;;;;;34.31;31.73;102166.59;4960544;28;45274;-70
2023/06/23 09:57:13;;;;;;;;;3.00;1.80;;;;;34.42;30.66;102171.50;4959961;28;46639;-69
2023/06/23 09:59:44;;;;;;;;;2.20;2.20;;;;;34.57;31.60;102163.44;4960586;28;45467;-70
2023/06/23 10:02:19;;;;;;;;;1.40;1.40;;;;;34.78;31.09;102164.06;4954552;28;45294;-70
2023/06/23 10:04:44;;;;;;;;;2.00;2.00;;;;;34.96;31.62;102165.78;4959890;28;45321;-71
2023/06/23 10:07:24;;;;;;;;;4.00;2.50;;;;;35.11;30.77;102161.31;4958509;28;45357;-74
2023/06/23 10:09:54;;;;;;;;;2.00;2.00;;;;;35.24;28.21;102169.75;4957174;28;45316;-72
2023/06/23 10:12:22;;;;;;;;;2.80;2.80;;;;;35.33;28.43;102158.19;4959952;28;45307;-69
2023/06/23 10:14:49;;;;;;;;;2.20;2.20;;;;;35.49;30.47;102158.16;4960303;28;45658;-70
2023/06/23 10:17:14;;;;;;;;;2.20;2.20;;;;;35.60;29.19;102166.72;4957055;28;45309;-70
2023/06/23 10:19:40;;;;;;;;;5.50;3.00;;;;;35.76;30.76;102163.91;4959471;28;45350;-70
2023/06/23 10:22:07;;;;;;;;;2.50;2.00;;;;;35.90;30.57;102157.56;4959874;28;45324;-69
2023/06/23 10:24:34;;;;;;;;;4.40;3.00;;;;;36.06;31.50;102159.31;4960206;28;45515;-69
2023/06/23 10:27:01;;;;;;;;;3.40;3.40;;;;;36.19;28.54;102159.44;4959734;28;46356;-70
2023/06/23 10:29:27;;;;;;;;;3.60;2.40;;;;;36.37;28.27;102162.91;4960088;28;45303;-69
2023/06/23 10:31:56;;;;;;;;;3.00;3.00;;;;;36.48;27.07;102149.34;4959828;28;45375;-69
2023/06/23 10:34:24;;;;;;;;;4.00;4.00;;;;;36.40;28.28;102129.66;4975394;28;45829;-69
2023/06/23 10:36:52;;;;;;;;;4.60;2.60;;;;;36.60;27.03;102150.44;4959361;28;45189;-69
2023/06/23 10:39:20;;;;;;;;;0.00;0.00;;;;;36.80;30.14;102146.38;4960034;28;45421;-70
2023/06/23 10:41:47;;;;;;;;;2.40;2.40;;;;;36.80;26.54;102140.00;4950999;28;45314;-69
2023/06/23 10:44:15;;;;;;;;;4.00;4.00;;;;;36.90;26.90;102144.81;4959946;28;45546;-69
2023/06/23 10:46:40;;;;;;;;;2.80;2.80;;;;;36.96;26.22;102152.66;4959653;28;46352;-70
2023/06/23 10:49:07;;;;;;;;;3.00;3.00;;;;;36.90;26.39;102139.28;4956845;28;45222;-70
2023/06/23 10:51:34;;;;;;;;;3.40;3.40;;;;;37.15;26.02;102141.34;4959409;28;45249;-70
2023/06/23 10:54:02;;;;;;;;;3.20;3.20;;;;;37.43;25.81;102147.75;4959309;28;45302;-71
2023/06/23 10:56:41;;;;;;;;;5.20;4.60;;;;;37.61;26.42;102142.88;4959623;28;46734;-70
2023/06/23 10:59:16;;;;;;;;;5.20;4.00;;;;;37.63;28.82;102143.66;4958420;28;45301;-71
2023/06/23 11:02:00;;;;;;;;;3.20;3.20;;;;;37.63;28.09;102150.06;4948721;28;45361;-72
2023/06/23 11:04:26;;;;;;;;;3.80;3.20;;;;;37.68;24.96;102144.22;4958285;28;45625;-72
2023/06/23 11:07:15;;;;;;;;;4.40;4.00;;;;;37.79;27.96;102149.88;4944682;28;47387;-71
2023/06/23 11:09:54;;;;;;;;;3.20;2.80;;;;;37.94;27.39;102152.56;4954776;28;45415;-71
2023/06/23 11:12:36;;;;;;;;;13.40;13.00;;;;;38.01;26.64;102140.13;4959373;28;45979;-71
2023/06/23 11:15:15;;;;;;;;;5.40;5.40;;;;;38.15;25.45;102148.31;4958606;28;45340;-70
2023/06/23 11:17:48;;;;;;;;;4.00;3.00;;;;;38.08;26.77;102146.97;4951063;28;47091;-71
2023/06/23 11:20:28;;;;;;;;;7.20;5.80;;;;;38.12;26.33;102144.88;4954509;28;45254;-70
2023/06/23 11:23:11;;;;;;;;;4.40;3.40;;;;;38.21;26.00;102150.63;4954378;28;45491;-71
2023/06/23 11:25:44;;;;;;;;;3.00;3.00;;;;;38.21;24.67;102136.84;4959092;28;45207;-71
2023/06/23 11:28:38;;;;;;;;;5.40;3.60;;;;;38.31;23.37;102141.69;4949579;28;47269;-71
2023/06/23 11:31:13;;;;;;;;;3.00;3.00;;;;;38.27;22.97;102136.38;4946191;28;45568;-71
2023/06/23 11:33:55;;;;;;;;;2.60;2.60;;;;;38.25;26.07;102131.97;4959513;28;45237;-72
2023/06/23 11:36:24;;;;;;;;;5.80;5.60;;;;;38.13;24.14;102121.81;4962480;28;45335;-71
2023/06/23 11:38:50;;;;;;;;;4.00;4.00;;;;;38.26;26.03;102140.16;4962113;28;45313;-72
2023/06/23 11:41:25;;;;;;;;;4.00;4.00;;;;;38.14;24.93;102135.50;4962157;28;45219;-72
2023/06/23 11:43:56;;;;;;;;;5.00;5.00;;;;;37.97;24.97;102131.16;4962110;28;45224;-71
2023/06/23 11:46:22;;;;;;;;;4.00;4.00;;;;;38.16;24.33;102135.41;4962250;28;45364;-71
2023/06/23 11:48:48;;;;;;;;;5.60;3.80;;;;;38.19;24.08;102126.88;4962323;28;45453;-71
2023/06/23 11:51:14;;;;;;;;;3.00;3.00;;;;;38.17;25.30;102137.16;4962235;28;45328;-72
2023/06/23 11:53:40;;;;;;;;;5.00;3.00;;;;;37.95;24.85;102127.66;4961785;28;45526;-72
2023/06/23 11:56:06;;;;;;;;;5.00;3.60;;;;;37.62;27.00;102142.78;4962294;28;45439;-72
2023/06/23 11:58:32;;;;;;;;;4.50;4.50;;;;;37.09;24.64;102143.63;4961649;28;45443;-71
2023/06/23 12:00:58;;;;;;;;;3.20;3.00;;;;;36.87;25.95;102135.88;4962307;28;45323;-71
2023/06/23 12:03:25;;;;;;;;;6.00;5.00;;;;;36.91;27.45;102131.91;4962124;28;45342;-71
2023/06/23 12:05:50;;;;;;;;;4.40;4.40;;;;;36.91;26.72;102121.75;4961965;28;46223;-72
2023/06/23 12:08:16;;;;;;;;;5.00;4.75;;;;;36.92;25.66;102130.94;4959610;28;45935;-72
2023/06/23 12:10:42;;;;;;;;;3.00;3.00;;;;;37.08;25.59;102139.09;4974706;28;45487;-71
2023/06/23 12:13:10;;;;;;;;;6.50;5.00;;;;;37.23;25.82;102135.31;4961891;28;45437;-71
2023/06/23 12:15:37;;;;;;;;;3.20;3.20;;;;;37.42;25.68;102126.69;4962014;28;45502;-71
2023/06/23 12:18:03;;;;;;;;;3.20;3.00;;;;;37.57;25.43;102111.84;4961359;28;45550;-71
2023/06/23 12:20:28;;;;;;;;;2.40;2.40;;;;;37.84;24.57;102114.56;4962179;28;45230;-71
2023/06/23 12:22:54;;;;;;;;;4.50;3.00;;;;;37.88;23.76;102115.22;4960968;28;45491;-71
2023/06/23 12:25:19;;;;;;;;;3.00;3.00;;;;;37.88;25.20;102106.06;4962028;28;45298;-71
2023/06/23 12:27:51;;;;;;;;;3.75;3.75;;;;;37.91;24.10;102098.44;4961172;28;45650;-71
2023/06/23 12:30:18;;;;;;;;;4.20;4.20;;;;;38.12;24.38;102109.88;4961929;28;45283;-71
2023/06/23 12:32:44;;;;;;;;;6.20;3.80;;;;;38.18;25.51;102112.19;4961401;28;45468;-70
2023/06/23 12:35:09;;;;;;;;;4.75;4.75;;;;;38.10;22.74;102100.81;4961830;28;45497;-71
2023/06/23 12:37:48;;;;;;;;;4.25;4.25;;;;;38.27;25.53;102105.13;4960952;28;45447;-71
2023/06/23 12:40:35;;;;;;;;;1.60;1.60;;;;;38.39;25.91;102106.09;4960325;28;45452;-71
2023/06/23 12:43:03;;;;;;;;;2.80;2.60;;;;;38.28;24.33;102096.69;4960986;28;45211;-71
2023/06/23 12:45:28;;;;;;;;;4.00;4.00;;;;;38.21;25.59;102086.25;4961640;28;45859;-70
2023/06/23 12:47:57;;;;;;;;;5.50;4.50;;;;;37.95;23.32;102083.47;4961102;28;45851;-71
2023/06/23 12:50:32;;;;;;;;;3.00;3.00;;;;;37.93;24.50;102096.47;4961343;28;45249;-72
2023/06/23 12:52:58;;;;;;;;;3.00;3.00;;;;;38.00;23.23;102091.41;4960987;28;47247;-71
2023/06/23 12:55:24;;;;;;;;;4.40;4.40;;;;;38.22;24.57;102093.50;4961177;28;45469;-71
2023/06/23 12:57:50;;;;;;;;;2.50;2.50;;;;;37.82;22.08;102090.81;4960969;28;46318;-71
2023/06/23 13:00:17;;;;;;;;;4.00;4.00;;;;;37.17;22.45;102086.97;4961272;28;45382;-71
2023/06/23 13:02:43;;;;;;;;;4.80;4.80;;;;;36.92;23.79;102082.19;4959857;28;45282;-70
2023/06/23 13:05:09;;;;;;;;;3.25;3.25;;;;;36.72;24.29;102082.66;4959846;28;47215;-70
2023/06/23 13:07:35;;;;;;;;;2.00;2.00;;;;;36.58;24.56;102094.56;4959746;28;45524;-70
2023/06/23 13:10:02;;;;;;;;;4.40;2.40;;;;;36.46;24.69;102096.19;4961429;28;45489;-70
2023/06/23 13:12:27;;;;;;;;;3.80;3.80;;;;;36.41;25.95;102092.88;4960784;28;45332;-71
2023/06/23 13:14:53;;;;;;;;;3.00;3.00;;;;;36.37;24.68;102088.53;4961065;28;46306;-71
2023/06/23 13:17:18;;;;;;;;;3.50;1.75;;;;;36.45;24.40;102077.91;4956997;28;45380;-71
2023/06/23 13:19:44;;;;;;;;;1.75;0.50;;;;;36.60;24.49;102089.84;4961370;28;45270;-71
2023/06/23 13:22:09;;;;;;;;;3.00;3.00;;;;;36.87;23.51;102092.66;4959989;28;45622;-72
2023/06/23 13:24:37;;;;;;;;;5.25;2.00;;;;;37.02;24.82;102079.72;4960725;28;45174;-70
2023/06/23 13:27:07;;;;;;;;;2.60;2.60;;;;;37.04;24.42;102074.13;4960275;28;46369;-70
2023/06/23 13:29:33;;;;;;;;;2.80;2.80;;;;;37.23;22.42;102080.16;4960856;28;45476;-72
2023/06/23 13:31:58;;;;;;;;;3.00;2.00;;;;;37.20;21.49;102088.66;4960437;28;45293;-73
2023/06/23 13:34:23;;;;;;;;;5.00;5.00;;;;;36.96;23.71;102086.50;4960266;28;53652;-72
2023/06/23 13:36:49;;;;;;;;;2.50;2.50;;;;;36.78;21.80;102085.00;4955449;28;46058;-71
2023/06/23 13:39:14;;;;;;;;;2.00;2.00;;;;;36.71;22.56;102090.00;4960779;28;45356;-71
2023/06/23 13:41:39;;;;;;;;;5.25;2.75;;;;;36.78;23.38;102097.91;4957602;28;45375;-71
2023/06/23 13:44:06;;;;;;;;;2.25;2.25;;;;;36.74;23.69;102077.91;4959938;28;45223;-71
2023/06/23 13:46:32;;;;;;;;;4.00;3.20;;;;;36.81;23.83;102078.41;4945675;28;47051;-72
2023/06/23 13:48:57;;;;;;;;;3.80;3.80;;;;;36.99;22.42;102079.03;4960568;28;45351;-72
2023/06/23 13:51:22;;;;;;;;;3.25;3.25;;;;;37.18;23.65;102087.84;4960862;28;45307;-72
2023/06/23 13:53:47;;;;;;;;;3.50;2.25;;;;;37.17;22.82;102083.34;4958960;28;51410;-72
2023/06/23 13:56:13;;;;;;;;;5.00;5.00;;;;;37.22;22.32;102080.25;4952820;28;53582;-73
2023/06/23 13:58:38;;;;;;;;;4.00;3.00;;;;;37.09;21.57;102074.72;4957936;28;45500;-72
2023/06/23 14:01:04;;;;;;;;;4.50;3.00;;;;;36.82;23.96;102056.22;4960715;28;45361;-71
2023/06/23 14:03:29;;;;;;;;;2.50;2.50;;;;;36.78;23.24;102071.22;4959679;28;45448;-73
2023/06/23 14:05:54;;;;;;;;;3.50;3.50;;;;;36.89;23.55;102073.25;4960415;28;46392;-71
2023/06/23 14:08:20;;;;;;;;;3.25;2.75;;;;;36.82;23.30;102074.66;4958438;28;45430;-71
2023/06/23 14:10:45;;;;;;;;;2.75;2.75;;;;;36.86;23.64;102073.44;4960242;28;45277;-72
2023/06/23 14:13:11;;;;;;;;;1.50;1.50;;;;;36.94;23.02;102063.69;4959588;28;45360;-73
2023/06/23 14:15:36;;;;;;;;;3.25;3.25;;;;;37.05;23.24;102062.09;4958763;28;45667;-72
2023/06/23 14:18:02;;;;;;;;;4.25;3.75;;;;;37.29;22.10;102056.78;4956155;28;45403;-72
2023/06/23 14:20:28;;;;;;;;;5.25;4.25;;;;;37.53;22.96;102066.16;4960340;28;45399;-71
2023/06/23 14:22:53;;;;;;;;;4.60;3.40;;;;;37.49;22.24;102055.44;4958462;28;46162;-71
2023/06/23 14:25:19;;;;;;;;;3.00;3.00;;;;;37.67;22.12;102072.56;4960066;28;45472;-71
2023/06/23 14:27:44;;;;;;;;;2.00;2.00;;;;;37.78;22.19;102080.97;4958323;28;45331;-72
2023/06/23 14:30:10;;;;;;;;;2.00;2.00;;;;;37.89;20.41;102082.97;4959965;28;50117;-72
2023/06/23 14:32:36;;;;;;;;;5.00;2.60;;;;;37.69;20.67;102065.94;4958257;28;47452;-72
2023/06/23 14:35:02;;;;;;;;;2.80;2.80;;;;;37.87;21.88;102071.16;4959971;28;45734;-71
2023/06/23 14:37:27;;;;;;;;;3.00;3.00;;;;;37.97;21.05;102075.06;4959173;28;45245;-71
2023/06/23 14:39:53;;;;;;;;;6.00;3.00;;;;;38.04;21.83;102062.59;4960262;28;45262;-71
2023/06/23 14:42:18;;;;;;;;;5.00;3.00;;;;;38.19;20.73;102060.59;4959324;28;45423;-72
2023/06/23 14:44:43;;;;;;;;;2.00;2.00;;;;;38.34;22.15;102072.41;4960054;28;45247;-72
2023/06/23 14:47:09;;;;;;;;;3.50;3.50;;;;;38.38;22.03;102072.06;4959262;28;45230;-71
2023/06/23 14:49:34;;;;;;;;;2.00;2.00;;;;;38.50;21.97;102076.72;4958719;28;45438;-71
2023/06/23 14:51:59;;;;;;;;;2.25;2.25;;;;;38.43;21.49;102071.78;4959000;28;45542;-71
2023/06/23 14:54:25;;;;;;;;;2.00;2.00;;;;;38.36;21.84;102059.34;4959782;28;46091;-72
2023/06/23 14:56:50;;;;;;;;;2.00;2.00;;;;;38.24;20.77;102063.91;4959078;28;45375;-72
2023/06/23 14:59:15;;;;;;;;;3.25;2.00;;;;;38.19;22.02;102063.34;4959685;28;45789;-71
2023/06/23 15:01:41;;;;;;;;;3.00;3.00;;;;;38.03;20.30;102061.69;4949569;28;45447;-72
2023/06/23 15:04:06;;;;;;;;;4.00;4.00;;;;;37.99;21.49;102064.81;4957957;28;45371;-71
2023/06/23 15:06:31;;;;;;;;;2.25;2.25;;;;;38.02;20.40;102068.22;4962228;28;45304;-72
2023/06/23 15:08:57;;;;;;;;;4.75;3.75;;;;;38.07;20.68;102065.13;4959561;28;45289;-72
2023/06/23 15:11:23;;;;;;;;;2.25;2.25;;;;;37.98;21.39;102047.38;4963111;28;45390;-72
2023/06/23 15:13:49;;;;;;;;;2.40;2.40;;;;;38.15;21.27;102059.03;4960154;28;45394;-71
2023/06/23 15:16:14;;;;;;;;;2.00;2.00;;;;;38.20;20.29;102063.22;4961210;28;45419;-71
2023/06/23 15:18:39;;;;;;;;;3.75;2.00;;;;;38.24;20.76;102066.69;4962066;28;45261;-71
2023/06/23 15:21:05;;;;;;;;;1.50;1.50;;;;;38.23;20.52;102052.00;4976260;28;45402;-72
2023/06/23 15:23:30;;;;;;;;;3.00;3.00;;;;;38.09;18.83;102059.50;4961939;28;45695;-72
2023/06/23 15:25:56;;;;;;;;;2.50;2.50;;;;;38.03;20.25;102063.56;4962838;28;45478;-71
2023/06/23 15:28:29;;;;;;;;;1.75;1.75;;;;;38.06;21.75;102060.59;4962355;28;45407;-71
2023/06/23 15:30:56;;;;;;;;;3.00;3.00;;;;;38.09;21.69;102049.31;4962609;28;45566;-72
2023/06/23 15:33:23;;;;;;;;;2.80;2.80;;;;;37.85;19.75;102018.84;4962170;28;45300;-72
2023/06/23 15:35:48;;;;;;;;;3.60;2.40;;;;;38.03;19.63;102045.13;4962400;28;45254;-72
2023/06/23 15:38:14;;;;;;;;;2.75;2.75;;;;;37.89;20.66;102022.25;4962104;28;45222;-72
2023/06/23 15:40:39;;;;;;;;;2.00;2.00;;;;;37.80;19.53;102040.34;4960718;28;45548;-72
2023/06/23 15:43:05;;;;;;;;;4.25;2.75;;;;;37.57;21.37;102029.06;4956311;28;45329;-72
2023/06/23 15:45:30;;;;;;;;;3.00;3.00;;;;;37.47;20.41;102038.06;4960566;28;45519;-72
2023/06/23 15:47:56;;;;;;;;;3.00;3.00;;;;;37.40;21.25;102030.22;4954651;28;45317;-72
2023/06/23 15:50:21;;;;;;;;;2.25;2.25;;;;;37.37;20.01;102026.81;4959456;28;45472;-72
2023/06/23 15:52:47;;;;;;;;;2.60;2.00;;;;;37.44;21.20;102050.19;4953139;28;46452;-72
2023/06/23 15:55:12;;;;;;;;;2.00;2.00;;;;;37.36;20.61;102031.44;4960104;28;45280;-71
2023/06/23 15:57:38;;;;;;;;;5.00;2.25;;;;;37.32;20.50;102038.16;4962094;28;45293;-72
2023/06/23 16:00:04;;;;;;;;;7.75;7.75;;;;;37.27;21.22;102045.84;4962260;28;45319;-72
2023/06/23 16:02:29;;;;;;;;;2.00;2.00;;;;;37.08;20.90;102009.50;4961855;28;45248;-72
2023/06/23 16:04:55;;;;;;;;;3.00;3.00;;;;;37.06;20.82;102030.81;4977143;28;45239;-72
2023/06/23 16:07:20;;;;;;;;;7.75;6.75;;;;;36.95;21.09;102024.09;4961384;28;45298;-72
2023/06/23 16:09:45;;;;;;;;;7.50;7.50;;;;;37.02;21.71;102029.22;4961868;28;45353;-71
2023/06/23 16:12:11;;;;;;;;;3.75;3.50;;;;;37.06;21.48;102022.53;4961050;28;45355;-72
2023/06/23 16:14:36;;;;;;;;;3.00;2.25;;;;;37.09;21.71;102019.56;4961908;28;45282;-71
2023/06/23 16:17:02;;;;;;;;;3.25;3.25;;;;;37.21;21.76;102026.09;4957588;28;45262;-71
2023/06/23 16:19:27;;;;;;;;;1.00;1.00;;;;;37.25;22.20;102020.28;4961997;28;45411;-72
2023/06/23 16:21:53;;;;;;;;;4.00;2.75;;;;;37.19;21.19;102026.19;4961457;28;46333;-71
2023/06/23 16:24:18;;;;;;;;;3.00;3.00;;;;;37.14;21.53;102017.34;4961848;28;45262;-72
2023/06/23 16:26:43;;;;;;;;;2.25;2.25;;;;;36.98;21.91;102023.00;4961706;28;45234;-72
2023/06/23 16:29:09;;;;;;;;;1.75;1.75;;;;;36.80;21.43;102030.63;4961864;28;45525;-72
2023/06/23 16:31:35;;;;;;;;;1.00;1.00;;;;;36.58;21.96;102044.06;4961246;28;45582;-72
2023/06/23 16:34:01;;;;;;;;;2.50;2.50;;;;;36.39;22.05;102026.00;4961282;28;45380;-71
2023/06/23 16:36:27;;;;;;;;;4.20;2.20;;;;;36.13;22.77;102038.69;4961353;28;45368;-72
2023/06/23 16:38:52;;;;;;;;;3.00;3.00;;;;;35.89;22.33;102023.72;4961522;28;45382;-72
2023/06/23 16:41:18;;;;;;;;;3.50;2.50;;;;;35.79;22.07;102018.75;4960337;28;46329;-71
2023/06/23 16:43:43;;;;;;;;;2.00;2.00;;;;;35.63;22.49;102032.63;4961198;28;45476;-71
2023/06/23 16:46:08;;;;;;;;;3.25;2.25;;;;;35.41;23.25;102035.75;4961866;28;45258;-71
2023/06/23 16:48:34;;;;;;;;;2.25;2.25;;;;;35.16;22.97;102044.59;4960750;28;45333;-71
2023/06/23 16:50:59;;;;;;;;;4.00;3.00;;;;;34.85;22.74;102031.75;4961247;28;46106;-72
2023/06/23 16:53:24;;;;;;;;;6.75;6.75;;;;;34.53;24.29;102008.88;4959306;28;46209;-71
2023/06/23 16:55:50;;;;;;;;;6.00;4.50;;;;;34.42;23.95;102034.22;4957119;28;45827;-71
2023/06/23 16:58:15;;;;;;;;;7.00;7.00;;;;;34.08;24.84;102033.31;4956298;28;45240;-71
2023/06/23 17:00:40;;;;;;;;;7.00;5.50;;;;;33.91;24.96;102030.59;4961215;28;45317;-71
2023/06/23 17:03:06;;;;;;;;;5.50;5.00;;;;;33.80;24.73;102031.16;4959186;28;45293;-73
2023/06/23 17:05:31;;;;;;;;;6.75;5.75;;;;;33.60;24.95;102032.25;4972893;28;45395;-71
2023/06/23 17:07:57;;;;;;;;;4.25;4.25;;;;;33.41;25.14;102032.31;4953803;28;52278;-73
2023/06/23 17:10:22;;;;;;;;;6.00;3.50;;;;;33.24;25.23;102029.53;4960572;28;45223;-71
2023/06/23 17:12:48;;;;;;;;;4.00;4.00;;;;;33.01;25.59;102025.25;4960633;28;45381;-71
2023/06/23 17:15:13;;;;;;;;;5.00;4.00;;;;;32.89;25.57;102039.53;4961110;28;45270;-72
2023/06/23 17:17:38;;;;;;;;;3.00;3.00;;;;;32.69;25.69;102035.06;4952741;28;45727;-71
2023/06/23 17:20:04;;;;;;;;;3.25;3.25;;;;;32.54;25.65;102036.66;4961277;28;46027;-72
2023/06/23 17:22:30;;;;;;;;;5.60;3.20;;;;;32.32;26.22;102036.75;4960296;28;45289;-72
2023/06/23 17:24:56;;;;;;;;;3.25;3.25;;;;;32.19;26.14;102036.47;4956641;28;45330;-73
2023/06/23 17:27:22;;;;;;;;;3.50;3.50;;;;;32.03;26.38;102041.75;4960446;28;45422;-72
2023/06/23 17:29:47;;;;;;;;;5.50;4.25;;;;;31.85;26.86;102028.91;4959732;28;46101;-72